Vernon River, Canada
Current Conditions -  °F | °C
As of 5:00 AM on Wednesday 22 Oct 2014 (Local Time) from CYYG Reporting Station
Broken Clouds Broken Clouds  
Wind Chill: 36°   Ceiling: 17000
Heat Index: 41°   Visibility: 15mi
Dew Point: 36°   Wind: 8mph
Humidity: 81%   Direction: 50°NE
Pressure: 30.34"   Gusts: NA
Location:  46.2°N, 62.83°W
Report Text: CYYG 220800Z 05007KT 15SM SCT120 BKN170 05/02 A3034 RMK AC3AC2 SLP275
Loading
Personal Weather Stations






























Interactive Weather Map
Tropical Storm Tracking
New forecast layout! Learn more

10-Day Weather Forecast

Advertisements
Track Severe Weather on mobile